createdAt,value
2018-02-07T00:00:16.942Z,55.90
2018-02-07T00:02:44.524Z,54.78
2018-02-07T00:05:12.024Z,56.03
2018-02-07T00:07:39.504Z,58.45
2018-02-07T00:10:07.005Z,53.87
2018-02-07T00:12:34.493Z,59.97
2018-02-07T00:15:01.996Z,56.75
2018-02-07T00:17:29.957Z,53.40
2018-02-07T00:19:57.536Z,51.45
2018-02-07T00:22:25.406Z,56.20
2018-02-07T00:24:52.898Z,52.22
2018-02-07T00:27:20.776Z,52.88
2018-02-07T00:29:48.677Z,52.90
2018-02-07T00:32:16.168Z,54.65
2018-02-07T00:34:43.670Z,54.10
2018-02-07T00:37:11.159Z,56.42
2018-02-07T00:39:39.056Z,51.50
2018-02-07T00:42:06.573Z,54.55
2018-02-07T00:44:34.075Z,52.03
2018-02-07T00:47:01.564Z,54.80
2018-02-07T00:49:29.467Z,59.15
2018-02-07T00:51:56.976Z,53.13
2018-02-07T00:54:24.460Z,54.90
2018-02-07T00:56:51.956Z,53.60
2018-02-07T00:59:19.434Z,50.97
2018-02-07T01:01:46.952Z,53.35
2018-02-07T01:04:14.439Z,52.35
2018-02-07T01:06:41.949Z,52.92
2018-02-07T01:09:09.496Z,56.45
2018-02-07T01:11:37.387Z,51.35
2018-02-07T01:14:04.876Z,52.53
2018-02-07T01:16:32.376Z,61.53
2018-02-07T01:18:59.891Z,52.33
2018-02-07T01:21:27.778Z,57.28
2018-02-07T01:23:55.660Z,52.95
2018-02-07T01:26:23.567Z,56.58
2018-02-07T01:28:51.104Z,55.80
2018-02-07T01:31:18.996Z,54.17
2018-02-07T01:33:46.480Z,48.97
2018-02-07T01:36:13.976Z,56.15
2018-02-07T01:38:41.450Z,54.03
2018-02-07T01:41:08.957Z,55.05
2018-02-07T01:43:36.836Z,63.97
2018-02-07T01:46:04.331Z,54.50
2018-02-07T01:48:31.820Z,55.38
2018-02-07T01:50:59.337Z,51.42
2018-02-07T01:53:26.852Z,60.90
2018-02-07T01:55:54.352Z,59.30
2018-02-07T01:58:21.832Z,57.50
2018-02-07T02:00:49.336Z,56.17
2018-02-07T02:03:17.212Z,54.85
2018-02-07T02:05:45.109Z,63.15
2018-02-07T02:08:12.996Z,57.78
2018-02-07T02:10:40.487Z,63.00
2018-02-07T02:13:07.967Z,59.00
2018-02-07T02:15:35.453Z,59.38
2018-02-07T02:18:02.971Z,67.37
2018-02-07T02:20:30.451Z,62.72
2018-02-07T02:22:57.947Z,53.53
2018-02-07T02:25:25.427Z,60.22
2018-02-07T02:27:53.022Z,55.65
2018-02-07T02:30:20.603Z,59.08
2018-02-07T02:32:48.100Z,59.15
2018-02-07T02:35:15.580Z,58.60
2018-02-07T02:37:43.076Z,64.30
2018-02-07T02:40:10.582Z,59.10
2018-02-07T02:42:38.089Z,55.17
2018-02-07T02:45:05.576Z,57.40
2018-02-07T02:47:33.100Z,57.28
2018-02-07T02:50:00.676Z,63.63
2018-02-07T02:52:28.166Z,63.03
2018-02-07T02:54:55.716Z,60.72
2018-02-07T02:57:23.211Z,60.65
2018-02-07T02:59:50.697Z,59.80
2018-02-07T03:02:18.187Z,65.45
2018-02-07T03:04:45.658Z,58.72
2018-02-07T03:07:13.148Z,58.33
2018-02-07T03:09:40.660Z,65.15
2018-02-07T03:12:08.164Z,72.25
2018-02-07T03:14:35.638Z,74.68
2018-02-07T03:17:03.133Z,69.07
2018-02-07T03:19:30.624Z,65.03
2018-02-07T03:21:58.515Z,66.37
2018-02-07T03:24:26.391Z,67.57
2018-02-07T03:26:54.360Z,62.78
2018-02-07T03:29:21.932Z,67.57
2018-02-07T03:31:49.441Z,66.18
2018-02-07T03:34:16.932Z,63.10
2018-02-07T03:36:44.416Z,65.65
2018-02-07T03:39:11.911Z,66.75
2018-02-07T03:41:39.404Z,67.05
2018-02-07T03:44:07.305Z,68.15
2018-02-07T03:46:34.787Z,64.40
2018-02-07T03:49:02.291Z,77.28
2018-02-07T03:51:29.775Z,70.65
2018-02-07T03:53:57.284Z,68.40
2018-02-07T03:56:24.772Z,71.78
2018-02-07T03:58:52.270Z,68.18
2018-02-07T04:01:19.764Z,70.60
2018-02-07T04:03:47.664Z,58.83
2018-02-07T04:06:15.152Z,67.55
2018-02-07T04:08:42.655Z,70.80
2018-02-07T04:11:10.148Z,62.45
2018-02-07T04:13:37.728Z,63.97
2018-02-07T04:16:05.615Z,63.28
2018-02-07T04:18:33.520Z,72.45
2018-02-07T04:21:01.061Z,70.45
2018-02-07T04:23:28.960Z,67.57
2018-02-07T04:25:56.449Z,68.25
2018-02-07T04:28:23.964Z,70.65
2018-02-07T04:30:51.460Z,82.50
2018-02-07T04:33:19.365Z,67.20
2018-02-07T04:35:46.904Z,66.47
2018-02-07T04:38:14.879Z,61.72
2018-02-07T04:40:42.360Z,64.62
2018-02-07T04:43:10.256Z,70.47
2018-02-07T04:45:37.734Z,65.05
2018-02-07T04:48:05.234Z,66.62
2018-02-07T04:50:32.728Z,74.12
2018-02-07T04:53:00.247Z,70.57
2018-02-07T04:55:27.735Z,69.05
2018-02-07T04:57:55.216Z,74.32
2018-02-07T05:00:22.724Z,75.28
2018-02-07T05:02:50.300Z,68.78
2018-02-07T05:05:18.237Z,74.18
2018-02-07T05:07:45.734Z,70.55
2018-02-07T05:10:13.244Z,66.82
2018-02-07T05:12:40.731Z,71.60
2018-02-07T05:15:08.237Z,69.10
2018-02-07T05:17:35.714Z,80.50
2018-02-07T05:20:03.220Z,70.70
2018-02-07T05:22:31.104Z,65.35
2018-02-07T05:24:58.612Z,69.68
2018-02-07T05:27:26.098Z,77.70
2018-02-07T05:29:53.600Z,74.87
2018-02-07T05:32:21.479Z,73.12
2018-02-07T05:34:49.371Z,67.45
2018-02-07T05:37:17.253Z,77.47
2018-02-07T05:39:45.211Z,68.47
2018-02-07T05:42:12.697Z,73.70
2018-02-07T05:44:40.658Z,67.57
2018-02-07T05:47:08.144Z,81.50
2018-02-07T05:49:36.044Z,72.85
2018-02-07T05:52:03.588Z,81.03
2018-02-07T05:54:31.096Z,73.55
2018-02-07T05:56:58.588Z,77.68
2018-02-07T05:59:26.098Z,73.05
2018-02-07T06:01:53.600Z,77.40
2018-02-07T06:04:21.104Z,83.70
2018-02-07T06:06:48.588Z,70.80
2018-02-07T06:09:16.092Z,79.20
2018-02-07T06:11:43.972Z,72.75
2018-02-07T06:14:11.868Z,83.00
2018-02-07T06:16:39.420Z,74.22
2018-02-07T06:19:07.324Z,79.60
2018-02-07T06:21:34.812Z,68.57
2018-02-07T06:24:02.356Z,70.45
2018-02-07T06:26:30.237Z,68.40
2018-02-07T06:28:58.114Z,72.18
2018-02-07T06:31:25.662Z,82.62
2018-02-07T06:33:53.144Z,70.45
2018-02-07T06:36:20.644Z,69.45
2018-02-07T06:38:48.140Z,81.55
2018-02-07T06:41:15.653Z,72.62
2018-02-07T06:43:43.536Z,73.60
2018-02-07T06:46:11.436Z,72.07
2018-02-07T06:48:38.919Z,76.00
2018-02-07T06:51:06.440Z,80.80
2018-02-07T06:53:33.922Z,75.12
2018-02-07T06:56:01.492Z,79.72
2018-02-07T06:58:28.971Z,71.20
2018-02-07T07:00:56.871Z,75.70
2018-02-07T07:03:24.354Z,71.35
2018-02-07T07:05:51.865Z,70.93
2018-02-07T07:08:19.360Z,73.30
2018-02-07T07:10:47.263Z,71.18
2018-02-07T07:13:14.810Z,73.90
2018-02-07T07:15:42.314Z,73.15
2018-02-07T07:18:09.801Z,66.40
2018-02-07T07:20:37.304Z,66.72
2018-02-07T07:23:04.886Z,67.80
2018-02-07T07:25:32.388Z,74.50
2018-02-07T07:27:59.872Z,68.25
2018-02-07T07:30:27.376Z,74.93
2018-02-07T07:32:54.855Z,71.03
2018-02-07T07:35:22.351Z,63.10
2018-02-07T07:37:50.332Z,73.60
2018-02-07T07:40:18.223Z,71.07
2018-02-07T07:42:46.185Z,69.78
2018-02-07T07:45:13.688Z,64.30
2018-02-07T07:47:41.166Z,72.32
2018-02-07T07:50:08.675Z,65.22
2018-02-07T07:52:36.161Z,70.18
2018-02-07T07:55:03.646Z,66.80
2018-02-07T07:57:31.560Z,69.43
2018-02-07T07:59:59.038Z,67.72
2018-02-07T08:02:26.551Z,63.92
2018-02-07T08:04:54.053Z,35.33
2018-02-07T08:07:21.556Z,50.88
2018-02-07T08:09:49.067Z,56.63
2018-02-07T08:12:16.573Z,54.35
2018-02-07T08:14:44.059Z,54.70
2018-02-07T08:17:11.560Z,58.85
2018-02-07T08:19:39.048Z,61.35
2018-02-07T08:22:06.619Z,71.60
2018-02-07T08:24:34.100Z,63.60
2018-02-07T08:27:01.995Z,64.65
2018-02-07T08:29:29.880Z,65.62
2018-02-07T08:31:57.371Z,63.75
2018-02-07T08:34:24.857Z,62.28
2018-02-07T08:36:52.356Z,60.65
2018-02-07T08:39:19.832Z,56.67
2018-02-07T08:41:47.432Z,55.05
2018-02-07T08:44:14.920Z,59.75
2018-02-07T08:46:42.423Z,59.70
2018-02-07T08:49:09.920Z,61.75
2018-02-07T08:51:37.410Z,65.78
2018-02-07T08:54:05.292Z,62.83
2018-02-07T08:56:32.802Z,66.50
2018-02-07T08:59:00.292Z,57.62
2018-02-07T09:01:27.788Z,67.28
2018-02-07T09:03:55.668Z,72.53
2018-02-07T09:06:23.559Z,62.17
2018-02-07T09:08:51.436Z,69.35
2018-02-07T09:11:19.342Z,95.53
2018-02-07T09:13:46.823Z,59.15
2018-02-07T09:16:14.319Z,68.10
2018-02-07T09:18:41.801Z,67.10
2018-02-07T09:21:09.312Z,60.72
2018-02-07T09:23:36.816Z,62.78
2018-02-07T09:26:04.303Z,64.20
2018-02-07T09:28:31.813Z,59.53
2018-02-07T09:30:59.686Z,56.10
2018-02-07T09:33:27.581Z,58.05
2018-02-07T09:35:55.064Z,65.87
2018-02-07T09:38:22.569Z,54.72
2018-02-07T09:40:50.048Z,57.00
2018-02-07T09:43:17.548Z,57.72
2018-02-07T09:45:45.511Z,56.85
2018-02-07T09:48:13.015Z,50.63
2018-02-07T09:50:40.496Z,55.88
2018-02-07T09:53:07.996Z,56.03
2018-02-07T09:55:35.477Z,53.55
2018-02-07T09:58:02.971Z,52.30
2018-02-07T10:00:30.454Z,44.35
2018-02-07T10:02:58.426Z,54.03
2018-02-07T10:05:25.904Z,49.45
2018-02-07T10:07:53.811Z,44.60
2018-02-07T10:10:21.287Z,49.10
2018-02-07T10:12:48.792Z,49.17
2018-02-07T10:15:16.272Z,48.05
2018-02-07T10:17:43.771Z,45.92
2018-02-07T10:20:11.656Z,48.28
2018-02-07T10:22:39.577Z,54.60
2018-02-07T10:25:07.092Z,49.60
2018-02-07T10:27:34.995Z,48.45
2018-02-07T10:30:02.489Z,46.20
2018-02-07T10:32:29.996Z,49.30
2018-02-07T10:34:57.530Z,44.88
2018-02-07T10:37:25.025Z,49.35
2018-02-07T10:39:52.515Z,45.95
2018-02-07T10:42:20.016Z,51.65
2018-02-07T10:44:47.501Z,47.55
2018-02-07T10:47:15.008Z,47.55
2018-02-07T10:49:42.482Z,48.10
2018-02-07T10:52:09.968Z,53.25
2018-02-07T10:54:37.472Z,46.83
2018-02-07T10:57:04.956Z,53.90
2018-02-07T10:59:32.461Z,49.63
2018-02-07T11:01:59.934Z,62.40
2018-02-07T11:04:27.431Z,50.05
2018-02-07T11:06:55.312Z,44.85
2018-02-07T11:09:23.208Z,47.25
2018-02-07T11:11:50.692Z,46.67
2018-02-07T11:14:18.192Z,51.42
2018-02-07T11:16:45.680Z,51.40
2018-02-07T11:19:13.180Z,47.28
2018-02-07T11:21:41.056Z,55.75
2018-02-07T11:24:08.947Z,49.15
2018-02-07T11:26:36.431Z,44.25
2018-02-07T11:29:03.928Z,45.20
2018-02-07T11:31:31.412Z,43.45
2018-02-07T11:33:58.906Z,47.42
2018-02-07T11:36:26.484Z,54.85
2018-02-07T11:38:54.366Z,54.55
2018-02-07T11:41:22.244Z,56.37
2018-02-07T11:43:50.147Z,62.70
2018-02-07T11:46:17.628Z,56.85
2018-02-07T11:48:45.165Z,59.42
2018-02-07T11:51:13.048Z,57.78
2018-02-07T11:53:40.935Z,59.25
2018-02-07T11:56:08.810Z,61.88
2018-02-07T11:58:36.709Z,56.28
2018-02-07T12:01:04.184Z,57.80
2018-02-07T12:03:31.728Z,59.70
2018-02-07T12:05:59.608Z,53.00
2018-02-07T12:08:27.512Z,55.58
2018-02-07T12:10:55.030Z,60.83
2018-02-07T12:13:22.539Z,57.80
2018-02-07T12:15:50.420Z,56.97
2018-02-07T12:18:18.296Z,55.33
2018-02-07T12:20:46.195Z,54.97
2018-02-07T12:23:13.684Z,60.47
2018-02-07T12:25:41.211Z,52.90
2018-02-07T12:28:09.086Z,61.53
2018-02-07T12:30:37.021Z,56.22
2018-02-07T12:33:04.509Z,53.72
2018-02-07T12:35:32.097Z,63.17
2018-02-07T12:37:59.589Z,59.25
2018-02-07T12:40:27.506Z,59.75
2018-02-07T12:42:54.992Z,61.92
2018-02-07T12:45:22.514Z,62.17
2018-02-07T12:47:50.393Z,56.37
2018-02-07T12:50:18.279Z,63.28
2018-02-07T12:52:45.764Z,63.35
2018-02-07T12:55:13.259Z,68.97
2018-02-07T12:57:40.749Z,65.55
2018-02-07T13:00:08.252Z,64.32
2018-02-07T13:02:36.138Z,67.22
2018-02-07T13:05:04.042Z,70.60
2018-02-07T13:07:32.358Z,66.85
2018-02-07T13:09:59.857Z,72.05
2018-02-07T13:12:27.340Z,73.55
2018-02-07T13:14:55.240Z,66.15
2018-02-07T13:17:22.784Z,61.95
2018-02-07T13:19:50.684Z,65.47
2018-02-07T13:22:18.163Z,65.40
2018-02-07T13:24:45.668Z,60.53
2018-02-07T13:27:13.149Z,59.88
2018-02-07T13:29:40.649Z,59.67
2018-02-07T13:32:08.528Z,55.97
2018-02-07T13:34:36.536Z,50.88
2018-02-07T13:37:04.075Z,55.90
2018-02-07T13:39:31.579Z,55.42
2018-02-07T13:41:59.068Z,59.63
2018-02-07T13:44:26.728Z,67.57
2018-02-07T13:46:54.228Z,60.12
2018-02-07T13:49:21.712Z,61.45
2018-02-07T13:51:49.218Z,66.72
2018-02-07T13:54:17.100Z,59.85
2018-02-07T13:56:44.996Z,58.92
2018-02-07T13:59:12.475Z,63.65
2018-02-07T14:01:39.972Z,62.90
2018-02-07T14:04:07.509Z,60.40
2018-02-07T14:06:35.380Z,67.20
2018-02-07T14:09:02.860Z,61.50
2018-02-07T14:11:30.365Z,68.07
2018-02-07T14:13:57.843Z,61.83
2018-02-07T14:16:25.347Z,66.93
2018-02-07T14:18:53.229Z,60.63
2018-02-07T14:21:20.764Z,62.25
2018-02-07T14:23:48.252Z,62.95
2018-02-07T14:26:15.870Z,65.25
2018-02-07T14:28:43.365Z,59.75
2018-02-07T14:31:10.903Z,63.95
2018-02-07T14:33:38.387Z,61.47
2018-02-07T14:36:05.980Z,67.15
2018-02-07T14:38:33.464Z,68.87
2018-02-07T14:41:01.157Z,64.93
2018-02-07T14:43:28.669Z,65.43
2018-02-07T14:45:56.364Z,67.93
2018-02-07T14:48:23.839Z,63.53
2018-02-07T14:50:51.681Z,56.60
2018-02-07T14:53:19.167Z,67.45
2018-02-07T14:55:46.740Z,65.30
2018-02-07T14:58:14.232Z,67.50
2018-02-07T15:00:41.868Z,63.70
2018-02-07T15:03:09.347Z,53.67
2018-02-07T15:05:36.911Z,58.17
2018-02-07T15:08:04.429Z,56.55
2018-02-07T15:10:31.927Z,59.38
2018-02-07T15:12:59.408Z,59.75
2018-02-07T15:15:27.289Z,58.47
2018-02-07T15:17:55.184Z,57.33
2018-02-07T15:20:22.673Z,53.97
2018-02-07T15:22:50.200Z,48.42
2018-02-07T15:25:18.075Z,60.90
2018-02-07T15:27:45.576Z,54.95
2018-02-07T15:30:13.060Z,55.72
2018-02-07T15:32:40.559Z,56.67
2018-02-07T15:35:08.040Z,60.63
2018-02-07T15:37:35.560Z,57.92
2018-02-07T15:40:03.044Z,52.45
2018-02-07T15:42:30.544Z,55.97
2018-02-07T15:44:58.028Z,58.13
2018-02-07T15:47:25.583Z,49.20
2018-02-07T15:49:53.034Z,51.25
2018-02-07T15:52:20.551Z,53.10
2018-02-07T15:54:48.030Z,58.20
2018-02-07T15:57:16.004Z,57.28
2018-02-07T15:59:43.499Z,50.47
2018-02-07T16:02:10.994Z,51.63
2018-02-07T16:04:38.515Z,54.97
2018-02-07T16:07:06.016Z,55.35
2018-02-07T16:09:33.500Z,56.40
2018-02-07T16:12:01.000Z,56.25
2018-02-07T16:14:28.484Z,60.42
2018-02-07T16:16:55.988Z,53.22
2018-02-07T16:19:23.864Z,60.03
2018-02-07T16:21:51.754Z,56.22
2018-02-07T16:24:19.234Z,54.20
2018-02-07T16:26:46.754Z,54.20
2018-02-07T16:29:14.236Z,62.10
2018-02-07T16:31:41.806Z,59.22
2018-02-07T16:34:09.365Z,59.65
2018-02-07T16:36:36.873Z,55.75
2018-02-07T16:39:04.432Z,54.40
2018-02-07T16:41:31.936Z,58.70
2018-02-07T16:43:59.420Z,53.95
2018-02-07T16:46:26.913Z,55.30
2018-02-07T16:48:54.412Z,55.65
2018-02-07T16:51:22.288Z,59.22
2018-02-07T16:53:49.785Z,62.25
2018-02-07T16:56:17.273Z,64.68
2018-02-07T16:58:44.804Z,59.05
2018-02-07T17:01:12.288Z,63.47
2018-02-07T17:03:40.187Z,62.13
2018-02-07T17:06:07.680Z,62.05
2018-02-07T17:08:35.186Z,68.62
2018-02-07T17:11:03.085Z,94.60
2018-02-07T17:13:31.060Z,71.20
2018-02-07T17:15:58.948Z,79.45
2018-02-07T17:18:26.864Z,66.32
2018-02-07T17:20:54.352Z,56.90
2018-02-07T17:23:21.872Z,58.63
2018-02-07T17:25:49.752Z,61.33
2018-02-07T17:28:17.652Z,63.63
2018-02-07T17:30:45.131Z,66.53
2018-02-07T17:33:12.632Z,61.78
2018-02-07T17:35:40.110Z,56.05
2018-02-07T17:38:07.700Z,79.12
2018-02-07T17:40:35.270Z,88.10
2018-02-07T17:43:02.780Z,105.40
2018-02-07T17:45:30.292Z,77.12
2018-02-07T17:47:57.790Z,74.65
2018-02-07T17:50:25.670Z,64.53
2018-02-07T17:52:53.564Z,71.47
2018-02-07T17:55:21.435Z,73.57
2018-02-07T17:57:49.340Z,93.22
2018-02-07T18:00:16.819Z,79.12
2018-02-07T18:02:44.325Z,65.45
2018-02-07T18:05:11.842Z,61.80
2018-02-07T18:07:39.389Z,58.85
2018-02-07T18:10:06.865Z,58.55
2018-02-07T18:12:34.764Z,62.90
2018-02-07T18:15:02.255Z,57.38
2018-02-07T18:17:29.736Z,64.03
2018-02-07T18:19:57.251Z,60.78
2018-02-07T18:22:24.828Z,63.80
2018-02-07T18:24:52.724Z,62.85
2018-02-07T18:27:20.624Z,62.85
2018-02-07T18:29:48.148Z,61.80
2018-02-07T18:32:15.631Z,60.38
2018-02-07T18:34:43.560Z,62.05
2018-02-07T18:37:11.088Z,55.75
2018-02-07T18:39:39.064Z,60.50
2018-02-07T18:42:06.939Z,59.03
2018-02-07T18:44:34.439Z,73.28
2018-02-07T18:47:01.915Z,75.55
2018-02-07T18:49:29.444Z,80.38
2018-02-07T18:51:56.928Z,66.18
2018-02-07T18:54:24.851Z,63.35
2018-02-07T18:56:52.327Z,60.90
2018-02-07T18:59:19.851Z,63.15
2018-02-07T19:01:47.740Z,59.72
2018-02-07T19:04:15.647Z,59.05
2018-02-07T19:06:43.168Z,56.85
2018-02-07T19:09:10.701Z,54.05
2018-02-07T19:11:38.199Z,77.93
2018-02-07T19:14:05.699Z,62.92
2018-02-07T19:16:33.574Z,59.20
2018-02-07T19:19:01.484Z,64.10
2018-02-07T19:21:28.978Z,62.70
2018-02-07T19:23:56.497Z,55.90
2018-02-07T19:26:24.456Z,55.00
2018-02-07T19:28:51.947Z,63.25
2018-02-07T19:31:19.840Z,56.20
2018-02-07T19:33:47.376Z,60.30
2018-02-07T19:36:14.895Z,55.60
2018-02-07T19:38:42.396Z,52.83
2018-02-07T19:41:09.929Z,57.00
2018-02-07T19:43:37.475Z,53.50
2018-02-07T19:46:04.990Z,52.50
2018-02-07T19:48:32.488Z,51.58
2018-02-07T19:50:59.993Z,59.33
2018-02-07T19:53:27.955Z,59.63
2018-02-07T19:55:55.473Z,53.45
2018-02-07T19:58:23.012Z,58.20
2018-02-07T20:00:50.512Z,58.53
2018-02-07T20:03:18.000Z,83.87
2018-02-07T20:05:45.508Z,62.25
2018-02-07T20:08:13.096Z,57.75
2018-02-07T20:10:41.021Z,61.37
2018-02-07T20:13:08.535Z,51.03
2018-02-07T20:15:36.041Z,54.05
2018-02-07T20:18:03.594Z,52.80
2018-02-07T20:20:31.487Z,51.25
2018-02-07T20:22:59.445Z,61.05
2018-02-07T20:25:26.948Z,57.92
2018-02-07T20:27:54.540Z,55.78
2018-02-07T20:30:22.047Z,50.00
2018-02-07T20:32:49.540Z,59.78
2018-02-07T20:35:17.040Z,57.80
2018-02-07T20:37:44.592Z,54.22
2018-02-07T20:40:12.514Z,49.00
2018-02-07T20:42:40.009Z,53.38
2018-02-07T20:45:07.515Z,48.28
2018-02-07T20:47:35.488Z,57.15
2018-02-07T20:50:03.391Z,55.80
2018-02-07T20:52:30.991Z,55.42
2018-02-07T20:54:58.494Z,51.70
2018-02-07T20:57:25.984Z,54.17
2018-02-07T20:59:53.882Z,58.90
2018-02-07T21:02:21.367Z,56.25
2018-02-07T21:04:48.872Z,56.33
2018-02-07T21:07:16.360Z,59.03
2018-02-07T21:09:43.864Z,51.83
2018-02-07T21:12:11.352Z,56.13
2018-02-07T21:14:38.845Z,57.15
2018-02-07T21:17:06.347Z,47.83
2018-02-07T21:19:33.854Z,53.97
2018-02-07T21:22:01.356Z,63.22
2018-02-07T21:24:28.838Z,60.85
2018-02-07T21:26:56.358Z,56.20
2018-02-07T21:29:23.859Z,56.53
2018-02-07T21:31:51.355Z,58.97
2018-02-07T21:34:18.845Z,55.08
2018-02-07T21:36:46.738Z,55.53
2018-02-07T21:39:14.628Z,58.25
2018-02-07T21:41:42.153Z,53.58
2018-02-07T21:44:09.657Z,52.97
2018-02-07T21:46:37.560Z,50.92
2018-02-07T21:49:05.051Z,50.95
2018-02-07T21:51:32.568Z,44.35
2018-02-07T21:54:00.055Z,47.92
2018-02-07T21:56:27.948Z,47.67
2018-02-07T21:58:55.444Z,45.92
2018-02-07T22:01:22.944Z,51.78
2018-02-07T22:03:50.428Z,45.80
2018-02-07T22:06:18.003Z,49.90
2018-02-07T22:08:45.883Z,49.17
2018-02-07T22:11:13.787Z,47.47
2018-02-07T22:13:41.275Z,45.65
2018-02-07T22:16:08.784Z,47.50
2018-02-07T22:18:36.280Z,49.58
2018-02-07T22:21:04.247Z,51.30
2018-02-07T22:23:31.741Z,50.28
2018-02-07T22:25:59.651Z,55.80
2018-02-07T22:28:27.134Z,55.78
2018-02-07T22:30:54.667Z,49.13
2018-02-07T22:33:22.171Z,48.42
2018-02-07T22:35:49.689Z,55.22
2018-02-07T22:38:17.571Z,53.25
2018-02-07T22:40:45.471Z,50.90
2018-02-07T22:43:12.978Z,53.72
2018-02-07T22:45:40.459Z,57.25
2018-02-07T22:48:08.060Z,52.28
2018-02-07T22:50:35.548Z,53.10
2018-02-07T22:53:03.483Z,64.85
2018-02-07T22:55:30.968Z,71.10
2018-02-07T22:57:58.552Z,67.68
2018-02-07T23:00:26.036Z,59.08
2018-02-07T23:02:53.952Z,60.15
2018-02-07T23:05:21.480Z,58.65
2018-02-07T23:07:49.046Z,58.58
2018-02-07T23:10:16.930Z,56.08
2018-02-07T23:12:44.435Z,60.10
2018-02-07T23:15:11.924Z,55.88
2018-02-07T23:17:39.432Z,58.10
2018-02-07T23:20:06.910Z,54.17
2018-02-07T23:22:34.420Z,48.35
2018-02-07T23:25:01.908Z,62.47
2018-02-07T23:27:29.412Z,52.53
2018-02-07T23:29:56.996Z,47.70
2018-02-07T23:32:24.988Z,50.55
2018-02-07T23:34:52.873Z,54.97
2018-02-07T23:37:20.775Z,50.95
2018-02-07T23:39:48.260Z,54.15
2018-02-07T23:42:15.759Z,55.05
2018-02-07T23:44:43.244Z,55.85
2018-02-07T23:47:10.752Z,54.58
2018-02-07T23:49:38.249Z,53.80
2018-02-07T23:52:05.755Z,58.90
2018-02-07T23:54:33.240Z,66.50
2018-02-07T23:57:01.140Z,51.03
2018-02-07T23:59:28.632Z,57.65
